createdAt,value
2023-08-19T00:01:34.899Z,80.72
2023-08-19T00:04:03.021Z,81.04
2023-08-19T00:06:37.532Z,80.74
2023-08-19T00:09:06.566Z,80.78
2023-08-19T00:11:34.647Z,80.66
2023-08-19T00:14:03.043Z,80.45
2023-08-19T00:16:31.047Z,80.52
2023-08-19T00:18:58.979Z,80.64
2023-08-19T00:21:27.028Z,81.12
2023-08-19T00:23:58.125Z,81.49
2023-08-19T00:26:27.349Z,82.00
2023-08-19T00:28:55.218Z,82.55
2023-08-19T00:31:24.375Z,82.63
2023-08-19T00:33:52.279Z,82.58
2023-08-19T00:36:20.262Z,82.97
2023-08-19T00:38:50.001Z,82.43
2023-08-19T00:41:19.789Z,82.73
2023-08-19T00:43:47.667Z,83.01
2023-08-19T00:46:15.585Z,82.60
2023-08-19T00:48:43.823Z,82.64
2023-08-19T00:51:11.918Z,83.14
2023-08-19T00:53:39.906Z,83.12
2023-08-19T00:56:07.833Z,82.92
2023-08-19T00:58:37.023Z,82.39
2023-08-19T01:01:04.832Z,82.24
2023-08-19T01:03:32.747Z,82.58
2023-08-19T01:06:10.719Z,82.98
2023-08-19T01:08:44.908Z,83.03
2023-08-19T01:11:18.993Z,82.94
2023-08-19T01:14:01.061Z,82.61
2023-08-19T01:16:31.933Z,83.17
2023-08-19T01:19:00.790Z,83.72
2023-08-19T01:21:29.541Z,83.25
2023-08-19T01:24:00.832Z,82.91
2023-08-19T01:26:30.209Z,83.07
2023-08-19T01:28:58.283Z,83.15
2023-08-19T01:31:26.192Z,81.92
2023-08-19T01:33:54.186Z,80.93
2023-08-19T01:36:31.319Z,81.13
2023-08-19T01:39:04.165Z,79.97
2023-08-19T01:41:34.688Z,80.15
2023-08-19T01:44:04.044Z,80.41
2023-08-19T01:46:32.023Z,80.66
2023-08-19T01:48:59.965Z,79.87
2023-08-19T01:51:30.113Z,80.32
2023-08-19T01:53:58.093Z,79.63
2023-08-19T01:56:26.121Z,78.88
2023-08-19T01:58:55.659Z,77.60
2023-08-19T02:01:23.799Z,77.93
2023-08-19T02:03:51.706Z,79.36
2023-08-19T02:06:19.843Z,79.08
2023-08-19T02:08:47.766Z,80.23
2023-08-19T02:11:15.710Z,81.07
2023-08-19T02:13:43.644Z,80.78
2023-08-19T02:16:13.073Z,81.48
2023-08-19T02:18:41.020Z,82.23
2023-08-19T02:21:08.917Z,82.89
2023-08-19T02:23:36.829Z,83.24
2023-08-19T02:26:05.300Z,83.39
2023-08-19T02:28:33.219Z,83.61
2023-08-19T02:31:04.287Z,84.06
2023-08-19T02:33:33.703Z,84.15
2023-08-19T02:36:01.621Z,84.30
2023-08-19T02:38:29.569Z,83.91
2023-08-19T02:40:57.471Z,83.70
2023-08-19T02:43:25.424Z,83.85
2023-08-19T02:45:54.482Z,84.80
2023-08-19T02:48:22.536Z,85.03
2023-08-19T02:50:54.422Z,85.35
2023-08-19T02:53:22.376Z,85.91
2023-08-19T02:55:53.655Z,86.22
2023-08-19T02:58:21.581Z,86.64
2023-08-19T03:00:49.941Z,86.67
2023-08-19T03:03:18.571Z,87.19
2023-08-19T03:05:46.722Z,86.96
2023-08-19T03:08:16.059Z,86.61
2023-08-19T03:10:44.126Z,86.22
2023-08-19T03:13:12.018Z,86.08
2023-08-19T03:15:40.508Z,86.31
2023-08-19T03:18:08.579Z,85.92
2023-08-19T03:23:04.749Z,86.73
2023-08-19T03:25:33.994Z,86.01
2023-08-19T03:28:02.070Z,86.05
2023-08-19T03:30:29.922Z,86.40
2023-08-19T03:32:57.972Z,86.22
2023-08-19T03:35:25.863Z,86.36
2023-08-19T03:37:53.768Z,87.24
2023-08-19T03:40:21.883Z,87.24
2023-08-19T03:42:51.287Z,86.59
2023-08-19T03:45:19.316Z,86.59
2023-08-19T03:47:47.231Z,86.07
2023-08-19T03:50:15.603Z,86.31
2023-08-19T03:52:43.434Z,86.22
2023-08-19T03:55:11.449Z,86.33
2023-08-19T03:57:39.420Z,87.05
2023-08-19T04:00:10.453Z,87.69
2023-08-19T04:02:38.424Z,87.60
2023-08-19T04:05:09.185Z,87.46
2023-08-19T04:07:37.084Z,87.40
2023-08-19T04:10:06.187Z,87.76
2023-08-19T04:12:34.375Z,87.77
2023-08-19T04:15:02.229Z,87.81
2023-08-19T04:17:34.615Z,87.39
2023-08-19T04:20:02.986Z,87.50
2023-08-19T04:22:31.004Z,87.93
2023-08-19T04:24:58.957Z,88.62
2023-08-19T04:27:26.921Z,89.20
2023-08-19T04:29:54.936Z,89.22
2023-08-19T04:32:22.846Z,89.30
2023-08-19T04:34:52.115Z,89.29
2023-08-19T04:37:19.978Z,89.67
2023-08-19T04:39:47.845Z,89.51
2023-08-19T04:42:15.715Z,88.65
2023-08-19T04:44:43.671Z,88.89
2023-08-19T04:47:11.561Z,88.29
2023-08-19T04:49:40.580Z,88.62
2023-08-19T04:52:09.843Z,88.53
2023-08-19T04:54:37.715Z,88.17
2023-08-19T04:57:05.664Z,86.59
2023-08-19T04:59:33.497Z,85.91
2023-08-19T05:02:01.352Z,85.70
2023-08-19T05:04:29.286Z,85.08
2023-08-19T05:06:57.196Z,84.85
2023-08-19T05:09:26.375Z,85.33
2023-08-19T05:11:54.173Z,85.35
2023-08-19T05:14:22.025Z,86.30
2023-08-19T05:16:50.115Z,86.75
2023-08-19T05:19:19.630Z,87.29
2023-08-19T05:21:49.549Z,88.00
2023-08-19T05:24:17.770Z,87.70
2023-08-19T05:26:47.092Z,86.32
2023-08-19T05:29:15.485Z,86.41
2023-08-19T05:31:43.956Z,86.17
2023-08-19T05:34:12.235Z,85.69
2023-08-19T05:36:40.135Z,85.04
2023-08-19T05:39:08.030Z,84.12
2023-08-19T05:41:36.208Z,83.99
2023-08-19T05:44:06.395Z,83.43
2023-08-19T05:46:34.903Z,83.26
2023-08-19T05:49:02.991Z,82.81
2023-08-19T05:51:30.854Z,82.43
2023-08-19T05:54:01.785Z,81.96
2023-08-19T05:56:29.669Z,81.40
2023-08-19T05:58:57.499Z,80.90
2023-08-19T06:01:26.931Z,80.41
2023-08-19T06:03:54.841Z,79.50
2023-08-19T06:06:22.737Z,78.65
2023-08-19T06:08:50.595Z,78.01
2023-08-19T06:11:18.497Z,77.51
2023-08-19T06:13:46.307Z,76.33
2023-08-19T06:16:14.422Z,74.79
2023-08-19T06:18:43.786Z,74.53
2023-08-19T06:21:11.660Z,73.94
2023-08-19T06:23:39.650Z,73.85
2023-08-19T06:26:07.518Z,72.63
2023-08-19T06:28:35.573Z,72.62
2023-08-19T06:31:03.532Z,72.56
2023-08-19T06:33:31.993Z,72.41
2023-08-19T06:36:02.612Z,71.17
2023-08-19T06:38:31.954Z,70.45
2023-08-19T06:41:10.469Z,70.00
2023-08-19T06:43:40.069Z,69.96
2023-08-19T06:46:09.340Z,70.00
2023-08-19T06:48:37.825Z,69.59
2023-08-19T06:51:08.016Z,69.67
2023-08-19T06:53:36.415Z,69.13
2023-08-19T06:56:10.076Z,69.22
2023-08-19T06:58:42.693Z,69.56
2023-08-19T07:01:19.370Z,70.20
2023-08-19T07:03:47.803Z,69.71
2023-08-19T07:06:19.632Z,69.15
2023-08-19T07:08:47.940Z,68.48
2023-08-19T07:11:16.828Z,67.73
2023-08-19T07:13:45.620Z,66.90
2023-08-19T07:16:14.843Z,66.73
2023-08-19T07:18:45.969Z,66.42
2023-08-19T07:21:17.434Z,66.13
2023-08-19T07:23:47.848Z,66.08
2023-08-19T07:26:16.629Z,66.37
2023-08-19T07:28:45.050Z,66.65
2023-08-19T07:31:13.366Z,66.49
2023-08-19T07:33:41.307Z,67.13
2023-08-19T07:36:09.882Z,66.27
2023-08-19T07:38:39.372Z,66.46
2023-08-19T07:41:07.354Z,66.23
2023-08-19T07:43:35.417Z,66.40
2023-08-19T07:46:03.766Z,65.75
2023-08-19T07:48:33.034Z,64.83
2023-08-19T07:51:00.895Z,64.43
2023-08-19T07:53:28.701Z,64.33
2023-08-19T07:55:57.900Z,64.54
2023-08-19T07:58:25.780Z,62.98
2023-08-19T08:00:53.757Z,62.32
2023-08-19T08:03:21.606Z,61.12
2023-08-19T08:05:49.497Z,61.38
2023-08-19T08:08:17.387Z,60.74
2023-08-19T08:10:45.442Z,61.34
2023-08-19T08:13:14.677Z,61.36
2023-08-19T08:15:42.572Z,60.66
2023-08-19T08:18:10.343Z,60.54
2023-08-19T08:20:40.250Z,60.33
2023-08-19T08:23:08.073Z,59.99
2023-08-19T08:25:35.892Z,58.36
2023-08-19T08:28:03.766Z,58.19
2023-08-19T08:30:33.024Z,58.55
2023-08-19T08:33:03.813Z,57.56
2023-08-19T08:35:32.097Z,57.84
2023-08-19T08:37:59.852Z,57.04
2023-08-19T08:40:27.657Z,56.95
2023-08-19T08:42:57.143Z,58.39
2023-08-19T08:45:27.299Z,56.93
2023-08-19T08:47:56.793Z,57.83
2023-08-19T08:50:24.889Z,57.68
2023-08-19T08:52:52.806Z,57.86
2023-08-19T08:55:20.669Z,58.55
2023-08-19T08:57:48.568Z,58.31
2023-08-19T09:00:17.722Z,57.97
2023-08-19T09:02:48.329Z,58.59
2023-08-19T09:05:20.435Z,58.54
2023-08-19T09:07:50.912Z,58.75
2023-08-19T09:10:25.630Z,58.67
2023-08-19T09:12:59.025Z,58.56
2023-08-19T09:15:29.971Z,59.16
2023-08-19T09:17:59.130Z,58.48
2023-08-19T09:20:30.214Z,58.85
2023-08-19T09:23:08.743Z,58.28
2023-08-19T09:25:38.321Z,58.52
2023-08-19T09:28:06.571Z,58.42
2023-08-19T09:30:35.170Z,58.89
2023-08-19T09:33:03.471Z,58.50
2023-08-19T09:35:53.024Z,57.88
2023-08-19T09:38:27.120Z,57.52
2023-08-19T09:41:03.537Z,57.88
2023-08-19T09:43:31.525Z,58.19
2023-08-19T09:46:00.193Z,58.26
2023-08-19T09:48:28.274Z,57.58
2023-08-19T09:50:57.743Z,57.95
2023-08-19T09:53:30.488Z,57.79
2023-08-19T09:55:58.556Z,58.12
2023-08-19T09:58:27.357Z,58.69
2023-08-19T10:00:55.341Z,58.96
2023-08-19T10:03:23.864Z,58.83
2023-08-19T10:05:53.965Z,58.67
2023-08-19T10:08:28.304Z,58.77
2023-08-19T10:10:56.451Z,58.99
2023-08-19T10:13:26.672Z,58.87
2023-08-19T10:15:59.378Z,57.73
2023-08-19T10:18:32.267Z,56.67
2023-08-19T10:21:05.722Z,56.25
2023-08-19T10:23:37.518Z,56.35
2023-08-19T10:26:05.655Z,56.85
2023-08-19T10:28:34.333Z,55.54
2023-08-19T10:31:10.155Z,55.04
2023-08-19T10:33:44.218Z,54.86
2023-08-19T10:36:15.968Z,55.26
2023-08-19T10:38:49.705Z,56.20
2023-08-19T10:41:20.340Z,55.13
2023-08-19T10:43:56.897Z,54.74
2023-08-19T10:46:43.810Z,55.04
2023-08-19T10:49:15.687Z,54.97
2023-08-19T10:51:46.971Z,55.49
2023-08-19T10:54:16.684Z,53.41
2023-08-19T10:56:54.624Z,52.32
2023-08-19T10:59:23.126Z,53.80
2023-08-19T11:01:51.688Z,53.34
2023-08-19T11:04:20.487Z,52.85
2023-08-19T11:06:53.889Z,53.75
2023-08-19T11:09:25.646Z,51.19
2023-08-19T11:11:53.690Z,50.84
2023-08-19T11:14:22.279Z,49.89
2023-08-19T11:16:50.479Z,49.26
2023-08-19T11:19:18.938Z,49.23
2023-08-19T11:21:47.597Z,48.41
2023-08-19T11:24:16.056Z,48.00
2023-08-19T11:26:46.511Z,48.02
2023-08-19T11:29:14.819Z,48.34
2023-08-19T11:31:43.995Z,47.90
2023-08-19T11:34:13.663Z,48.75
2023-08-19T11:36:42.634Z,47.38
2023-08-19T11:39:12.447Z,47.50
2023-08-19T11:41:41.186Z,47.51
2023-08-19T11:44:10.590Z,47.05
2023-08-19T11:46:38.567Z,47.24
2023-08-19T11:49:08.608Z,48.00
2023-08-19T11:51:38.821Z,48.02
2023-08-19T11:54:09.019Z,47.80
2023-08-19T11:56:47.736Z,47.40
2023-08-19T11:59:17.409Z,47.15
2023-08-19T12:01:47.713Z,47.62
2023-08-19T12:04:17.757Z,48.51
2023-08-19T12:06:46.444Z,48.41
2023-08-19T12:09:14.875Z,48.34
2023-08-19T12:11:43.641Z,48.54
2023-08-19T12:14:11.560Z,49.07
2023-08-19T12:16:40.871Z,47.90
2023-08-19T12:19:08.810Z,48.42
2023-08-19T12:21:36.748Z,50.23
2023-08-19T12:24:04.973Z,51.00
2023-08-19T12:26:32.947Z,52.04
2023-08-19T12:29:00.807Z,52.08
2023-08-19T12:31:28.753Z,53.77
2023-08-19T12:33:58.028Z,55.94
2023-08-19T12:36:25.862Z,52.54
2023-08-19T12:38:54.748Z,52.90
2023-08-19T12:41:22.835Z,53.24
2023-08-19T12:43:50.723Z,53.93
2023-08-19T12:46:18.990Z,53.01
2023-08-19T12:48:46.824Z,54.58
2023-08-19T12:51:18.227Z,54.84
2023-08-19T12:53:46.045Z,55.90
2023-08-19T12:56:13.928Z,55.33
2023-08-19T12:58:41.962Z,56.10
2023-08-19T13:01:09.869Z,56.67
2023-08-19T13:03:37.816Z,57.00
2023-08-19T13:06:05.984Z,57.04
2023-08-19T13:08:35.210Z,57.04
2023-08-19T13:11:02.982Z,57.16
2023-08-19T13:13:30.839Z,57.70
2023-08-19T13:15:58.627Z,57.89
2023-08-19T13:18:26.463Z,57.77
2023-08-19T13:20:54.366Z,57.73
2023-08-19T13:23:22.302Z,57.81
2023-08-19T13:25:52.007Z,57.17
2023-08-19T13:28:19.827Z,57.50
2023-08-19T13:30:47.756Z,56.79
2023-08-19T13:33:16.070Z,57.10
2023-08-19T13:35:43.976Z,56.42
2023-08-19T13:38:11.811Z,56.48
2023-08-19T13:40:39.604Z,56.15
2023-08-19T13:43:08.824Z,54.59
2023-08-19T13:45:36.672Z,54.19
2023-08-19T13:48:14.724Z,53.36
2023-08-19T13:50:43.476Z,50.49
2023-08-19T13:53:11.369Z,51.93
2023-08-19T13:55:40.274Z,51.09
2023-08-19T13:58:09.586Z,51.09
2023-08-19T14:00:37.857Z,48.60
2023-08-19T14:03:07.670Z,46.50
2023-08-19T14:05:36.252Z,47.18
2023-08-19T14:08:04.215Z,46.41
2023-08-19T14:10:32.111Z,46.57
2023-08-19T14:13:01.034Z,47.89
2023-08-19T14:15:30.401Z,47.69
2023-08-19T14:17:58.423Z,46.22
2023-08-19T14:20:26.491Z,47.24
2023-08-19T14:22:54.333Z,47.60
2023-08-19T14:25:22.176Z,47.97
2023-08-19T14:27:50.175Z,47.86
2023-08-19T14:30:17.996Z,48.46
2023-08-19T14:32:47.250Z,49.46
2023-08-19T14:35:15.295Z,49.58
2023-08-19T14:37:43.153Z,49.12
2023-08-19T14:40:11.775Z,49.68
2023-08-19T14:42:40.040Z,51.00
2023-08-19T14:45:09.108Z,48.85
2023-08-19T14:47:37.208Z,49.03
2023-08-19T14:50:08.313Z,50.31
2023-08-19T14:52:36.424Z,48.97
2023-08-19T14:55:05.250Z,49.23
2023-08-19T14:57:34.296Z,49.89
2023-08-19T15:00:02.649Z,50.02
2023-08-19T15:02:45.784Z,50.44
2023-08-19T15:05:16.127Z,50.35
2023-08-19T15:07:44.329Z,50.06
2023-08-19T15:10:12.726Z,50.58
2023-08-19T15:12:40.579Z,50.45
2023-08-19T15:15:11.554Z,51.65
2023-08-19T15:17:39.379Z,52.85
2023-08-19T15:20:08.885Z,53.30
2023-08-19T15:22:38.199Z,52.74
2023-08-19T15:25:06.954Z,53.45
2023-08-19T15:27:34.895Z,54.14
2023-08-19T15:30:02.929Z,55.11
2023-08-19T15:32:30.753Z,55.94
2023-08-19T15:34:58.607Z,56.69
2023-08-19T15:37:26.514Z,57.16
2023-08-19T15:39:55.736Z,56.95
2023-08-19T15:42:23.574Z,57.60
2023-08-19T15:44:51.582Z,58.66
2023-08-19T15:47:19.481Z,59.51
2023-08-19T15:49:47.386Z,59.33
2023-08-19T15:52:15.214Z,59.51
2023-08-19T15:54:43.366Z,60.09
2023-08-19T15:57:12.572Z,59.77
2023-08-19T15:59:40.347Z,59.46
2023-08-19T16:02:08.480Z,59.34
2023-08-19T16:04:36.355Z,59.06
2023-08-19T16:07:05.871Z,58.84
2023-08-19T16:09:33.865Z,58.79
2023-08-19T16:12:03.487Z,59.40
2023-08-19T16:14:32.678Z,59.97
2023-08-19T16:17:01.482Z,59.78
2023-08-19T16:19:29.345Z,59.86
2023-08-19T16:21:57.144Z,59.72
2023-08-19T16:24:24.960Z,60.63
2023-08-19T16:26:52.725Z,61.46
2023-08-19T16:29:20.542Z,61.57
2023-08-19T16:31:49.705Z,61.91
2023-08-19T16:34:17.566Z,62.63
2023-08-19T16:36:45.468Z,62.48
2023-08-19T16:39:13.241Z,62.72
2023-08-19T16:41:41.100Z,62.49
2023-08-19T16:44:08.973Z,62.83
2023-08-19T16:46:37.088Z,63.49
2023-08-19T16:49:06.598Z,63.84
2023-08-19T16:51:34.588Z,64.29
2023-08-19T16:54:02.417Z,65.01
2023-08-19T16:56:30.263Z,64.93
2023-08-19T16:58:58.074Z,65.46
2023-08-19T17:01:25.941Z,65.57
2023-08-19T17:03:54.121Z,65.34
2023-08-19T17:06:23.394Z,65.80
2023-08-19T17:08:52.901Z,67.08
2023-08-19T17:11:20.878Z,68.46
2023-08-19T17:13:48.843Z,69.76
2023-08-19T17:16:16.727Z,68.77
2023-08-19T17:18:44.642Z,69.60
2023-08-19T17:21:12.500Z,69.43
2023-08-19T17:23:42.186Z,69.65
2023-08-19T17:26:10.198Z,70.38
2023-08-19T17:28:38.041Z,69.94
2023-08-19T17:31:07.014Z,70.74
2023-08-19T17:33:35.058Z,71.28
2023-08-19T17:36:04.875Z,71.13
2023-08-19T17:38:33.117Z,70.88
2023-08-19T17:41:04.396Z,71.80
2023-08-19T17:43:33.018Z,72.12
2023-08-19T17:46:03.464Z,71.73
2023-08-19T17:48:32.017Z,72.09
2023-08-19T17:51:03.146Z,71.67
2023-08-19T17:53:33.132Z,71.76
2023-08-19T17:56:03.540Z,72.38
2023-08-19T17:58:32.426Z,72.63
2023-08-19T18:01:01.644Z,72.66
2023-08-19T18:03:29.509Z,72.92
2023-08-19T18:05:57.409Z,74.82
2023-08-19T18:08:25.378Z,75.46
2023-08-19T18:10:53.696Z,76.40
2023-08-19T18:13:23.053Z,76.48
2023-08-19T18:15:50.898Z,76.53
2023-08-19T18:18:18.804Z,77.13
2023-08-19T18:20:46.597Z,76.33
2023-08-19T18:23:14.553Z,76.74
2023-08-19T18:25:42.470Z,76.70
2023-08-19T18:28:10.774Z,77.14
2023-08-19T18:30:40.078Z,77.31
2023-08-19T18:33:08.055Z,78.52
2023-08-19T18:35:36.068Z,79.54
2023-08-19T18:38:04.538Z,80.87
2023-08-19T18:40:34.424Z,81.39
2023-08-19T18:43:02.321Z,81.82
2023-08-19T18:45:30.160Z,82.48
2023-08-19T18:48:09.663Z,82.63
2023-08-19T18:50:39.131Z,82.49
2023-08-19T18:53:07.984Z,82.44
2023-08-19T18:55:38.255Z,82.66
2023-08-19T18:58:06.338Z,82.27
2023-08-19T19:00:34.780Z,83.22
2023-08-19T19:03:03.487Z,82.88
2023-08-19T19:05:35.088Z,82.92
2023-08-19T19:08:03.529Z,83.35
2023-08-19T19:10:31.418Z,83.37
2023-08-19T19:12:59.855Z,83.56
2023-08-19T19:15:27.685Z,83.43
2023-08-19T19:17:58.068Z,84.39
2023-08-19T19:20:27.261Z,83.66
2023-08-19T19:22:58.961Z,84.42
2023-08-19T19:25:27.700Z,83.41
2023-08-19T19:27:56.156Z,82.99
2023-08-19T19:30:27.073Z,83.98
2023-08-19T19:32:55.159Z,84.10
2023-08-19T19:35:23.485Z,85.24
2023-08-19T19:37:51.256Z,84.82
2023-08-19T19:40:21.185Z,84.21
2023-08-19T19:42:50.252Z,84.48
2023-08-19T19:45:18.620Z,84.18
2023-08-19T19:47:47.672Z,83.88
2023-08-19T19:50:15.443Z,83.41
2023-08-19T19:52:43.242Z,83.85
2023-08-19T19:55:11.193Z,83.39
2023-08-19T19:57:40.605Z,83.18
2023-08-19T20:00:11.559Z,82.13
2023-08-19T20:02:39.478Z,81.55
2023-08-19T20:05:07.878Z,81.38
2023-08-19T20:07:36.421Z,80.77
2023-08-19T20:10:23.820Z,80.42
2023-08-19T20:12:54.271Z,79.65
2023-08-19T20:15:22.133Z,80.03
2023-08-19T20:17:52.071Z,79.58
2023-08-19T20:20:20.412Z,79.63
2023-08-19T20:22:51.018Z,79.53
2023-08-19T20:25:19.127Z,79.74
2023-08-19T20:27:47.264Z,80.17
2023-08-19T20:30:16.718Z,80.74
2023-08-19T20:32:44.555Z,80.65
2023-08-19T20:35:12.656Z,80.94
2023-08-19T20:37:40.532Z,81.50
2023-08-19T20:40:10.092Z,81.95
2023-08-19T20:42:40.763Z,82.05
2023-08-19T20:45:10.514Z,82.71
2023-08-19T20:47:39.955Z,82.98
2023-08-19T20:50:08.245Z,83.16
2023-08-19T20:52:36.407Z,83.59
2023-08-19T20:55:04.522Z,83.66
2023-08-19T20:57:32.765Z,84.38
2023-08-19T21:00:01.386Z,83.83
2023-08-19T21:02:29.214Z,83.81
2023-08-19T21:04:58.500Z,84.23
2023-08-19T21:07:26.468Z,84.43
2023-08-19T21:09:54.399Z,84.13
2023-08-19T21:12:22.349Z,83.63
2023-08-19T21:14:50.364Z,83.70
2023-08-19T21:17:18.286Z,83.70
2023-08-19T21:19:46.152Z,84.06
2023-08-19T21:22:15.407Z,84.17
2023-08-19T21:24:43.242Z,83.09
2023-08-19T21:27:12.598Z,82.53
2023-08-19T21:29:40.675Z,82.28
2023-08-19T21:32:08.531Z,81.66
2023-08-19T21:34:36.423Z,82.14
2023-08-19T21:37:04.318Z,82.07
2023-08-19T21:39:33.611Z,81.63
2023-08-19T21:42:01.499Z,81.44
2023-08-19T21:44:29.326Z,81.51
2023-08-19T21:46:57.778Z,80.95
2023-08-19T21:49:25.845Z,81.15
2023-08-19T21:51:53.788Z,80.71
2023-08-19T21:54:21.640Z,80.92
2023-08-19T21:56:50.852Z,81.22
2023-08-19T21:59:18.721Z,81.07
2023-08-19T22:01:46.696Z,81.64
2023-08-19T22:04:14.490Z,81.90
2023-08-19T22:06:42.539Z,82.07
2023-08-19T22:09:10.424Z,82.32
2023-08-19T22:11:38.303Z,81.93
2023-08-19T22:14:07.831Z,81.69
2023-08-19T22:16:36.098Z,81.63
2023-08-19T22:19:04.288Z,81.38
2023-08-19T22:21:32.788Z,81.61
2023-08-19T22:24:00.705Z,81.61
2023-08-19T22:26:28.540Z,81.77
2023-08-19T22:28:56.365Z,81.49
2023-08-19T22:31:25.550Z,81.74
2023-08-19T22:33:53.881Z,81.77
2023-08-19T22:36:21.716Z,81.69
2023-08-19T22:38:52.017Z,81.85
2023-08-19T22:41:20.016Z,82.57
2023-08-19T22:43:47.889Z,82.98
2023-08-19T22:46:15.782Z,82.76
2023-08-19T22:48:45.018Z,82.44
2023-08-19T22:51:13.068Z,82.88
2023-08-19T22:53:40.797Z,82.66
2023-08-19T22:56:08.628Z,82.61
2023-08-19T22:58:36.467Z,83.38
2023-08-19T23:01:04.772Z,83.37
2023-08-19T23:03:32.559Z,83.73
2023-08-19T23:06:01.687Z,83.69
2023-08-19T23:08:29.508Z,83.56
2023-08-19T23:10:57.295Z,83.75
2023-08-19T23:13:25.097Z,83.96
2023-08-19T23:15:53.041Z,85.17
2023-08-19T23:18:20.873Z,85.52
2023-08-19T23:20:48.802Z,85.03
2023-08-19T23:23:17.990Z,85.04
2023-08-19T23:25:46.114Z,85.11
2023-08-19T23:28:14.066Z,85.22
2023-08-19T23:30:41.909Z,85.57
2023-08-19T23:33:09.781Z,85.71
2023-08-19T23:35:37.803Z,86.24
2023-08-19T23:38:06.065Z,86.25
2023-08-19T23:40:35.260Z,86.27
2023-08-19T23:43:03.184Z,86.37
2023-08-19T23:45:31.083Z,86.34
2023-08-19T23:47:59.595Z,86.35
2023-08-19T23:50:28.273Z,86.41
2023-08-19T23:52:59.468Z,86.84
2023-08-19T23:55:28.574Z,87.07
2023-08-19T23:57:58.446Z,87.23
